Nocc Pamplona — LALG5 — position and weather

sailwx.info

Track history (hours):
 
Tides and Currents Weather Stations Pressure Air Temp Water Temp Dewpoint Dewpoint Depression Visibility Wind Speed Wind Dir Waves Ship Positions

Nocc Pamplona

Last reported at 2015-May-26 01:32 UTC. Time now 2015-May-26 09:47 UTC.
Position N 35°01' E 129°05'.

Length 177 m; draft 6.8 m.

Type: Cargo ship. MMSI: 257349000.

Date/timePositionNaut miles runAvg speedWind from/ knotsBaromVisibWave heightAir tempDewpointWater temp
2015-May-26 01:32N 35°01' E 129°05'10 8.4
2015-May-26 00:22N 35°02' E 129°17'1110.8
2015-May-25 23:20N 35°02' E 129°31'2412.9
2015-May-25 21:28N 35°08' E 129°59'  
2015-May-18 23:30N 35°09' E 129°39'8 0.3
2015-May-17 15:13N 35°03' E 129°46'15 2.9
2015-May-17 10:09N 34°48' E 129°42'711.7
2015-May-17 09:33N 34°41' E 129°43'1 0.9
2015-May-17 08:30N 34°42' E 129°43'1 1.0
2015-May-17 07:28N 34°43' E 129°44'1 0.9
2015-May-17 06:04N 34°44' E 129°45'0 0.5
2015-May-17 05:32N 34°44' E 129°45'0 0.3
2015-May-17 04:25N 34°44' E 129°45'0 0.2
2015-May-17 03:33N 34°44' E 129°45'0 0.2
2015-May-17 02:27N 34°45' E 129°45'0 0.4
2015-May-17 01:32N 34°45' E 129°44'0 0.4
2015-May-17 00:31N 34°45' E 129°44'1 0.2
2015-May-16 22:19N 34°44' E 129°44'1 0.7
2015-May-16 21:30N 34°44' E 129°45'1 1.0
2015-May-16 20:33N 34°45' E 129°44'1 1.2
2015-May-16 19:33N 34°46' E 129°44'2 1.2
2015-May-16 18:09N 34°47' E 129°43'1 1.3
2015-May-16 17:29N 34°48' E 129°42'  
Track history (hours):
 
Tides and Currents Weather Stations Pressure Air Temp Water Temp Dewpoint Dewpoint Depression Visibility Wind Speed Wind Dir Waves Ship Positions

Nocc Pamplona

Last reported at 2015-May-26 01:32 UTC. Time now 2015-May-26 09:47 UTC.
Position N 35°01' E 129°05'.

Length 177 m; draft 6.8 m.

Type: Cargo ship. MMSI: 257349000.

Date/timePositionNaut miles runAvg speedWind from/ knotsBaromVisibWave heightAir tempDewpointWater temp
2015-May-26 01:32N 35°01' E 129°05'10 8.4
2015-May-26 00:22N 35°02' E 129°17'1110.8
2015-May-25 23:20N 35°02' E 129°31'2412.9
2015-May-25 21:28N 35°08' E 129°59'  
2015-May-18 23:30N 35°09' E 129°39'8 0.3
2015-May-17 15:13N 35°03' E 129°46'15 2.9
2015-May-17 10:09N 34°48' E 129°42'711.7
2015-May-17 09:33N 34°41' E 129°43'1 0.9
2015-May-17 08:30N 34°42' E 129°43'1 1.0
2015-May-17 07:28N 34°43' E 129°44'1 0.9
2015-May-17 06:04N 34°44' E 129°45'0 0.5
2015-May-17 05:32N 34°44' E 129°45'0 0.3
2015-May-17 04:25N 34°44' E 129°45'0 0.2
2015-May-17 03:33N 34°44' E 129°45'0 0.2
2015-May-17 02:27N 34°45' E 129°45'0 0.4
2015-May-17 01:32N 34°45' E 129°44'0 0.4
2015-May-17 00:31N 34°45' E 129°44'1 0.2
2015-May-16 22:19N 34°44' E 129°44'1 0.7
2015-May-16 21:30N 34°44' E 129°45'1 1.0
2015-May-16 20:33N 34°45' E 129°44'1 1.2
2015-May-16 19:33N 34°46' E 129°44'2 1.2
2015-May-16 18:09N 34°47' E 129°43'1 1.3
2015-May-16 17:29N 34°48' E 129°42'  

Dump ship's entire track history